Time;durP1;ratioP1;P1;durP2;ratioP2;P2;SDS_P1;SDS_P2;PMS_P1;PMS_P2;Temp;Humidity;BMP_temperature;BMP_pressure;BME280_temperature;BME280_humidity;BME280_pressure;Samples;Min_cycle;Max_cycle;Signal;HPM_P1;HPM_P2
2023/12/31 00:02:06;;;;;;;;;;;;;;;25.79;36.42;93775.25;4954792;29;9543;-39
2023/12/31 00:04:48;;;;;;;;;;;;;;;25.78;36.35;93771.75;4961986;28;7202;-39
2023/12/31 00:07:16;;;;;;;;;;;;;;;25.80;35.82;93777.47;4953799;29;8852;-38
2023/12/31 00:09:52;;;;;;;;;;;;;;;25.79;36.26;93773.25;4957234;28;9152;-39
2023/12/31 00:12:18;;;;;;;;;;;;;;;25.82;36.19;93771.44;4954579;29;7071;-39
2023/12/31 00:14:47;;;;;;;;;;;;;;;25.80;36.44;93769.22;4965922;28;7104;-39
2023/12/31 00:17:17;;;;;;;;;;;;;;;25.83;36.10;93767.44;4956996;28;7218;-39
2023/12/31 00:19:51;;;;;;;;;;;;;;;25.82;36.54;93763.19;4942516;28;8333;-39
2023/12/31 00:22:21;;;;;;;;;;;;;;;25.82;35.83;93755.66;4959658;28;7597;-39
2023/12/31 00:24:56;;;;;;;;;;;;;;;25.83;36.05;93746.13;4958292;28;9115;-39
2023/12/31 00:27:26;;;;;;;;;;;;;;;25.82;36.45;93746.66;4946492;28;9064;-38
2023/12/31 00:29:52;;;;;;;;;;;;;;;25.79;36.50;93740.19;4961260;28;9068;-47
2023/12/31 00:32:46;;;;;;;;;;;;;;;25.78;36.11;93741.47;4977069;28;9063;-45
2023/12/31 00:35:26;;;;;;;;;;;;;;;25.77;36.07;93726.22;4884358;29;7198;-47
2023/12/31 00:37:59;;;;;;;;;;;;;;;25.74;36.56;93713.50;4897854;29;6852;-46
2023/12/31 00:40:44;;;;;;;;;;;;;;;25.77;36.09;93706.19;4876925;29;7177;-46
2023/12/31 00:43:24;;;;;;;;;;;;;;;25.76;36.34;93701.94;4882287;29;7225;-47
2023/12/31 00:45:59;;;;;;;;;;;;;;;25.73;36.78;93705.75;4899350;29;8755;-46
2023/12/31 00:48:28;;;;;;;;;;;;;;;25.77;37.02;93703.44;4868543;29;7063;-47
2023/12/31 00:51:40;;;;;;;;;;;;;;;25.77;36.35;93701.41;4900175;29;7082;-46
2023/12/31 00:54:07;;;;;;;;;;;;;;;25.75;36.41;93678.44;4846746;29;7174;-48
2023/12/31 00:56:46;;;;;;;;;;;;;;;25.75;36.28;93673.63;4826635;29;7339;-47
2023/12/31 00:59:22;;;;;;;;;;;;;;;25.76;36.53;93671.63;4840361;29;7627;-48
2023/12/31 01:01:50;;;;;;;;;;;;;;;25.73;36.27;93665.16;4849295;29;9148;-48
2023/12/31 01:04:18;;;;;;;;;;;;;;;25.76;36.06;93657.84;4826610;29;7114;-50
2023/12/31 01:06:49;;;;;;;;;;;;;;;25.73;36.78;93643.13;4832057;29;7609;-46
2023/12/31 01:09:15;;;;;;;;;;;;;;;25.74;36.13;93636.38;4825060;29;9215;-47
2023/12/31 01:11:41;;;;;;;;;;;;;;;25.76;36.78;93622.06;4848866;29;7211;-46
2023/12/31 01:14:07;;;;;;;;;;;;;;;25.76;36.94;93620.03;4869124;29;9533;-46
2023/12/31 01:16:33;;;;;;;;;;;;;;;25.76;36.71;93619.28;4859498;29;9214;-47
2023/12/31 01:18:59;;;;;;;;;;;;;;;25.77;37.03;93621.53;4860713;29;8907;-46
2023/12/31 01:21:25;;;;;;;;;;;;;;;25.76;36.42;93616.53;4860598;29;9055;-49
2023/12/31 01:23:51;;;;;;;;;;;;;;;25.77;37.06;93613.28;4860658;29;7629;-48
2023/12/31 01:26:17;;;;;;;;;;;;;;;25.76;36.23;93609.03;4876104;29;9408;-46
2023/12/31 01:28:44;;;;;;;;;;;;;;;25.74;36.33;93616.34;4870237;29;9065;-47
2023/12/31 01:31:18;;;;;;;;;;;;;;;25.74;36.05;93603.31;4924813;28;8992;-47
2023/12/31 01:33:46;;;;;;;;;;;;;;;25.75;36.37;93604.78;4965106;28;7476;-46
2023/12/31 01:36:25;;;;;;;;;;;;;;;25.74;36.62;93606.06;4971124;28;7004;-45
2023/12/31 01:38:57;;;;;;;;;;;;;;;25.74;36.58;93600.56;4958036;28;9286;-47
2023/12/31 01:41:31;;;;;;;;;;;;;;;25.74;36.84;93600.56;4962062;28;9235;-38
2023/12/31 01:44:07;;;;;;;;;;;;;;;25.73;36.33;93593.56;4956235;28;7276;-39
2023/12/31 01:46:35;;;;;;;;;;;;;;;25.75;36.69;93587.53;4950817;28;7223;-38
2023/12/31 01:49:01;;;;;;;;;;;;;;;25.72;36.36;93583.06;4964534;28;9134;-38
2023/12/31 01:51:33;;;;;;;;;;;;;;;25.73;36.50;93590.78;4974588;28;9242;-39
2023/12/31 01:54:06;;;;;;;;;;;;;;;25.73;37.01;93576.31;4954584;28;7065;-38
2023/12/31 01:56:36;;;;;;;;;;;;;;;25.71;36.48;93571.31;4951246;28;7767;-39
2023/12/31 01:59:05;;;;;;;;;;;;;;;25.73;36.96;93590.78;4950136;28;9187;-39
2023/12/31 02:01:40;;;;;;;;;;;;;;;25.74;37.08;93577.78;4964458;28;8419;-40
2023/12/31 02:04:08;;;;;;;;;;;;;;;25.70;36.84;93572.59;4957570;28;7001;-39
2023/12/31 02:06:35;;;;;;;;;;;;;;;25.72;36.38;93566.56;4955391;28;10464;-38
2023/12/31 02:09:03;;;;;;;;;;;;;;;25.73;36.55;93571.50;4961918;28;7129;-38
2023/12/31 02:11:41;;;;;;;;;;;;;;;25.73;37.28;93554.28;4924900;28;7419;-39
2023/12/31 02:14:16;;;;;;;;;;;;;;;25.73;36.51;93537.75;4948869;28;7009;-38
2023/12/31 02:16:46;;;;;;;;;;;;;;;25.76;36.40;93536.66;4973383;28;7114;-39
2023/12/31 02:19:30;;;;;;;;;;;;;;;25.76;36.23;93531.16;4958940;28;7256;-39
2023/12/31 02:22:00;;;;;;;;;;;;;;;25.75;36.21;93521.44;4955666;28;7214;-39
2023/12/31 02:25:04;;;;;;;;;;;;;;;25.76;36.57;93512.63;4957581;28;8786;-39
2023/12/31 02:27:40;;;;;;;;;;;;;;;25.75;37.20;93507.66;4874564;29;7234;-39
2023/12/31 02:30:07;;;;;;;;;;;;;;;25.75;36.76;93497.34;4888383;29;9102;-40
2023/12/31 02:32:42;;;;;;;;;;;;;;;25.75;36.40;93491.84;4879783;29;7339;-39
2023/12/31 02:35:24;;;;;;;;;;;;;;;25.77;36.98;93483.06;4864105;29;7256;-39
2023/12/31 02:37:51;;;;;;;;;;;;;;;25.74;36.92;93484.88;4871429;29;9266;-39
2023/12/31 02:40:36;;;;;;;;;;;;;;;25.74;36.81;93482.13;4893812;29;7133;-39
2023/12/31 02:43:15;;;;;;;;;;;;;;;25.74;36.85;93464.84;4893428;29;6965;-39
2023/12/31 02:45:52;;;;;;;;;;;;;;;25.73;36.64;93455.84;4889400;29;7260;-39
2023/12/31 02:48:28;;;;;;;;;;;;;;;25.73;36.30;93455.13;4880598;29;7324;-39
2023/12/31 02:51:08;;;;;;;;;;;;;;;25.72;36.49;93443.34;4891996;29;9451;-36
2023/12/31 02:53:49;;;;;;;;;;;;;;;25.72;35.96;93445.38;4878292;29;8753;-36
2023/12/31 02:56:15;;;;;;;;;;;;;;;25.72;36.78;93440.59;4877158;29;7227;-36
2023/12/31 02:58:43;;;;;;;;;;;;;;;25.68;36.56;93434.69;4873882;29;9147;-36
2023/12/31 03:01:09;;;;;;;;;;;;;;;25.71;36.54;93430.84;4892876;29;9115;-36
2023/12/31 03:03:36;;;;;;;;;;;;;;;25.71;35.86;93421.88;4943101;28;10484;-36
2023/12/31 03:06:39;;;;;;;;;;;;;;;25.70;37.03;93428.63;4953591;28;8740;-36
2023/12/31 03:09:23;;;;;;;;;;;;;;;25.70;36.35;93432.13;4894275;29;9091;-36
2023/12/31 03:12:33;;;;;;;;;;;;;;;25.72;36.27;93420.56;4896878;29;7249;-36
2023/12/31 03:15:15;;;;;;;;;;;;;;;25.70;36.79;93412.84;4819473;29;9138;-36
2023/12/31 03:17:41;;;;;;;;;;;;;;;25.68;36.57;93409.91;4807866;29;7175;-36
2023/12/31 03:20:08;;;;;;;;;;;;;;;25.69;36.14;93405.09;4815775;29;7303;-36
2023/12/31 03:22:34;;;;;;;;;;;;;;;25.69;36.95;93399.59;4818005;29;9379;-36
2023/12/31 03:25:02;;;;;;;;;;;;;;;25.69;37.01;93400.34;4821566;29;7270;-36
2023/12/31 03:27:28;;;;;;;;;;;;;;;25.69;36.50;93392.09;4838691;29;7573;-36
2023/12/31 03:29:54;;;;;;;;;;;;;;;25.71;36.91;93397.06;4834589;29;9122;-36
2023/12/31 03:32:20;;;;;;;;;;;;;;;25.68;36.87;93376.09;4832918;29;7187;-36
2023/12/31 03:34:48;;;;;;;;;;;;;;;25.66;36.93;93379.41;4836913;29;9144;-36
2023/12/31 03:37:14;;;;;;;;;;;;;;;25.68;37.04;93376.84;4836896;29;7238;-36
2023/12/31 03:39:41;;;;;;;;;;;;;;;25.69;36.60;93374.81;4826961;29;7087;-36
2023/12/31 03:42:07;;;;;;;;;;;;;;;25.69;36.84;93367.31;4837661;29;9179;-36
2023/12/31 03:44:33;;;;;;;;;;;;;;;25.69;36.96;93369.31;4886664;29;7344;-36
2023/12/31 03:46:59;;;;;;;;;;;;;;;25.68;36.92;93359.59;4891081;29;9195;-36
2023/12/31 03:49:25;;;;;;;;;;;;;;;25.69;36.84;93347.28;4895885;29;7275;-36
2023/12/31 03:51:51;;;;;;;;;;;;;;;25.68;36.88;93343.81;4927000;28;9408;-36
2023/12/31 03:54:17;;;;;;;;;;;;;;;25.68;36.12;93349.31;4957282;28;7511;-36
2023/12/31 03:56:44;;;;;;;;;;;;;;;25.68;36.49;93351.31;4955953;28;9179;-36
2023/12/31 03:59:14;;;;;;;;;;;;;;;25.66;36.21;93340.09;4949484;28;7243;-37
2023/12/31 04:01:56;;;;;;;;;;;;;;;25.69;36.71;93322.50;4953570;28;7574;-36
2023/12/31 04:04:34;;;;;;;;;;;;;;;25.68;36.82;93321.78;4933758;28;9265;-36
2023/12/31 04:07:00;;;;;;;;;;;;;;;25.68;36.80;93323.78;4952509;29;7182;-36
2023/12/31 04:09:27;;;;;;;;;;;;;;;25.66;35.89;93316.06;4954373;28;7051;-36
2023/12/31 04:11:53;;;;;;;;;;;;;;;25.67;36.07;93320.28;4961279;28;9455;-36
2023/12/31 04:14:20;;;;;;;;;;;;;;;25.66;36.55;93312.56;4963573;28;9040;-36
2023/12/31 04:16:46;;;;;;;;;;;;;;;25.67;36.70;93308.53;4970501;28;9065;-36
2023/12/31 04:19:19;;;;;;;;;;;;;;;25.65;36.73;93306.31;4955722;28;7410;-36
2023/12/31 04:21:48;;;;;;;;;;;;;;;25.67;36.31;93298.25;4962393;28;7290;-36
2023/12/31 04:24:15;;;;;;;;;;;;;;;25.65;36.62;93294.56;4964637;28;7066;-36
2023/12/31 04:26:44;;;;;;;;;;;;;;;25.66;35.83;93294.03;4972857;28;9096;-36
2023/12/31 04:29:13;;;;;;;;;;;;;;;25.65;36.04;93294.56;4955124;28;7507;-37
2023/12/31 04:31:47;;;;;;;;;;;;;;;25.62;36.20;93279.84;4970567;28;7514;-36
2023/12/31 04:34:23;;;;;;;;;;;;;;;25.63;36.76;93269.56;4956420;28;7709;-36
2023/12/31 04:36:54;;;;;;;;;;;;;;;25.63;36.76;93264.81;4957875;28;7179;-36
2023/12/31 04:39:27;;;;;;;;;;;;;;;25.61;36.71;93256.34;4965450;28;7241;-36
2023/12/31 04:41:54;;;;;;;;;;;;;;;25.60;36.82;93243.84;4961676;28;6958;-37
2023/12/31 04:44:27;;;;;;;;;;;;;;;25.60;36.24;93249.34;4954223;28;9023;-36
2023/12/31 04:46:53;;;;;;;;;;;;;;;25.62;36.60;93248.84;4957545;28;9323;-36
2023/12/31 04:49:28;;;;;;;;;;;;;;;25.62;36.24;93235.78;4955310;28;7049;-36
2023/12/31 04:52:11;;;;;;;;;;;;;;;25.62;36.29;93238.53;4971689;28;6993;-36
2023/12/31 04:54:45;;;;;;;;;;;;;;;25.63;36.46;93236.53;4950494;28;7546;-36
2023/12/31 04:57:19;;;;;;;;;;;;;;;25.63;36.52;93248.28;4939569;28;7303;-36
2023/12/31 04:59:47;;;;;;;;;;;;;;;25.62;36.78;93257.09;4974389;28;7010;-37
2023/12/31 05:02:15;;;;;;;;;;;;;;;25.60;36.47;93238.34;4960156;28;7240;-36
2023/12/31 05:04:46;;;;;;;;;;;;;;;25.62;36.89;93266.06;4954919;28;7243;-36
2023/12/31 05:07:14;;;;;;;;;;;;;;;25.64;36.50;93262.81;4962269;28;8823;-36
2023/12/31 05:09:39;;;;;;;;;;;;;;;25.64;36.87;93255.28;4955604;28;7070;-39
2023/12/31 05:12:15;;;;;;;;;;;;;;;25.64;36.69;93277.31;4958953;28;6977;-39
2023/12/31 05:14:52;;;;;;;;;;;;;;;25.64;36.06;93277.31;4971155;28;6902;-39
2023/12/31 05:17:50;;;;;;;;;;;;;;;25.65;36.71;93295.28;4974188;28;9808;-40
2023/12/31 05:20:44;;;;;;;;;;;;;;;25.65;36.12;93298.06;4872353;29;7229;-39
2023/12/31 05:23:21;;;;;;;;;;;;;;;25.64;35.69;93298.59;4861695;29;7031;-39
2023/12/31 05:25:59;;;;;;;;;;;;;;;25.61;36.16;93316.94;4856746;29;7275;-39
2023/12/31 05:29:03;;;;;;;;;;;;;;;25.62;36.73;93317.66;4872130;29;9509;-39
2023/12/31 05:31:30;;;;;;;;;;;;;;;25.62;36.41;93323.91;4791129;29;9128;-39
2023/12/31 05:33:58;;;;;;;;;;;;;;;25.62;36.29;93323.91;4804225;29;8719;-39
2023/12/31 05:36:40;;;;;;;;;;;;;;;25.63;36.51;93327.41;4806374;29;9143;-38
2023/12/31 05:39:06;;;;;;;;;;;;;;;25.61;35.88;93338.97;4801731;29;9300;-39
2023/12/31 05:41:45;;;;;;;;;;;;;;;25.61;36.58;93343.72;4790765;29;7464;-39
2023/12/31 05:44:36;;;;;;;;;;;;;;;25.62;36.13;93345.22;4790950;29;7243;-38
2023/12/31 05:47:17;;;;;;;;;;;;;;;25.62;36.60;93345.22;4788279;30;9173;-39
2023/12/31 05:49:53;;;;;;;;;;;;;;;25.60;36.29;93354.00;4791107;29;9399;-39
2023/12/31 05:52:23;;;;;;;;;;;;;;;25.58;35.90;93367.56;4806113;29;9366;-39
2023/12/31 05:54:50;;;;;;;;;;;;;;;25.59;36.59;93379.31;4795331;29;7074;-39
2023/12/31 05:57:18;;;;;;;;;;;;;;;25.58;36.03;93384.06;4872187;29;7249;-39
2023/12/31 05:59:44;;;;;;;;;;;;;;;25.58;36.79;93391.63;4863313;29;7212;-39
2023/12/31 06:02:20;;;;;;;;;;;;;;;25.62;35.89;93392.03;4862609;29;9393;-39
2023/12/31 06:04:52;;;;;;;;;;;;;;;25.60;36.39;93391.81;4884705;28;7238;-38
2023/12/31 06:07:18;;;;;;;;;;;;;;;25.58;36.39;93392.34;4956949;28;8725;-39
2023/12/31 06:09:50;;;;;;;;;;;;;;;25.57;36.26;93396.38;4959609;28;7050;-39
2023/12/31 06:12:18;;;;;;;;;;;;;;;25.55;36.08;93400.94;4961388;28;7334;-39
2023/12/31 06:14:44;;;;;;;;;;;;;;;25.60;36.22;93409.06;4973021;28;9008;-39
2023/12/31 06:17:22;;;;;;;;;;;;;;;25.57;36.62;93410.16;4974963;28;9544;-39
2023/12/31 06:19:54;;;;;;;;;;;;;;;25.57;36.49;93418.41;4973735;28;6999;-39
2023/12/31 06:22:23;;;;;;;;;;;;;;;25.51;37.14;93415.03;4957323;28;9040;-39
2023/12/31 06:24:49;;;;;;;;;;;;;;;25.51;37.10;93423.28;4974478;28;7473;-39
2023/12/31 06:27:19;;;;;;;;;;;;;;;25.56;36.82;93419.66;4968039;28;7265;-41
2023/12/31 06:29:46;;;;;;;;;;;;;;;25.53;36.57;93418.00;4958573;28;7430;-35
2023/12/31 06:32:25;;;;;;;;;;;;;;;25.51;36.20;93417.78;4975683;28;9110;-34
2023/12/31 06:34:51;;;;;;;;;;;;;;;25.52;36.70;93418.50;4958969;28;8898;-35
2023/12/31 06:37:22;;;;;;;;;;;;;;;25.56;36.89;93438.19;4968962;28;9194;-35
2023/12/31 06:40:18;;;;;;;;;;;;;;;25.54;37.13;93430.47;4962546;28;7717;-36
2023/12/31 06:43:15;;;;;;;;;;;;;;;25.53;36.77;93437.25;4924312;29;7185;-36
2023/12/31 06:45:52;;;;;;;;;;;;;;;25.52;37.01;93435.03;4885051;29;7237;-36
2023/12/31 06:48:26;;;;;;;;;;;;;;;25.50;36.85;93430.06;4863328;29;7897;-35
2023/12/31 06:50:52;;;;;;;;;;;;;;;25.53;36.54;93442.78;4880911;29;7244;-35
2023/12/31 06:53:25;;;;;;;;;;;;;;;25.57;36.29;93432.16;4878513;29;9639;-36
2023/12/31 06:56:17;;;;;;;;;;;;;;;25.58;36.82;93439.13;4878933;29;7139;-35
2023/12/31 06:58:45;;;;;;;;;;;;;;;25.58;36.65;93452.19;4894246;29;7204;-35
2023/12/31 07:01:22;;;;;;;;;;;;;;;25.55;37.07;93436.72;4872377;29;7466;-35
2023/12/31 07:04:00;;;;;;;;;;;;;;;25.58;36.78;93447.41;4873614;29;7133;-36
2023/12/31 07:06:31;;;;;;;;;;;;;;;25.55;36.92;93437.47;4879065;29;7293;-36
2023/12/31 07:08:57;;;;;;;;;;;;;;;25.56;36.94;93441.69;4901168;29;7269;-35
2023/12/31 07:11:55;;;;;;;;;;;;;;;25.58;37.06;93436.38;4862029;29;7260;-36
2023/12/31 07:14:36;;;;;;;;;;;;;;;25.58;37.01;93439.13;4872296;29;7155;-35
2023/12/31 07:17:04;;;;;;;;;;;;;;;25.61;36.21;93432.59;4891637;29;9117;-36
2023/12/31 07:19:30;;;;;;;;;;;;;;;25.59;36.66;93437.13;4872068;29;9060;-35
2023/12/31 07:21:56;;;;;;;;;;;;;;;25.57;36.15;93437.69;4900112;29;9040;-36
2023/12/31 07:24:34;;;;;;;;;;;;;;;25.58;36.97;93427.41;4937170;28;9051;-35
2023/12/31 07:27:00;;;;;;;;;;;;;;;25.57;36.50;93426.66;4931552;29;7298;-35
2023/12/31 07:29:27;;;;;;;;;;;;;;;25.56;36.20;93427.94;4908385;29;7119;-36
2023/12/31 07:31:53;;;;;;;;;;;;;;;25.56;36.83;93427.19;4920255;29;8766;-35
2023/12/31 07:34:19;;;;;;;;;;;;;;;25.51;36.36;93426.06;4923509;29;9093;-36
2023/12/31 07:36:48;;;;;;;;;;;;;;;25.54;37.16;93430.47;4929122;29;7250;-36
2023/12/31 07:39:17;;;;;;;;;;;;;;;25.55;36.80;93433.97;4927430;29;9159;-36
2023/12/31 07:41:47;;;;;;;;;;;;;;;25.54;36.41;93435.97;4931106;29;9152;-36
2023/12/31 07:44:13;;;;;;;;;;;;;;;25.53;37.05;93429.00;4903706;29;9200;-36
2023/12/31 07:46:41;;;;;;;;;;;;;;;25.56;37.18;93433.44;4911393;29;7109;-36
2023/12/31 07:49:07;;;;;;;;;;;;;;;25.55;37.36;93434.72;4926777;29;8274;-48
2023/12/31 07:51:36;;;;;;;;;;;;;;;25.56;37.31;93447.19;4958844;28;7099;-50
2023/12/31 07:54:03;;;;;;;;;;;;;;;25.58;37.19;93450.16;4970405;28;7238;-45
2023/12/31 07:56:32;;;;;;;;;;;;;;;25.52;36.66;93430.28;4964305;28;9224;-46
2023/12/31 07:58:58;;;;;;;;;;;;;;;25.52;37.37;93441.28;4955336;28;9257;-45
2023/12/31 08:01:27;;;;;;;;;;;;;;;25.49;37.75;93441.63;4951629;28;9011;-45
2023/12/31 08:03:56;;;;;;;;;;;;;;;25.51;37.19;93445.31;4954817;28;7328;-47
2023/12/31 08:06:22;;;;;;;;;;;;;;;25.51;37.19;93445.31;4950352;28;6990;-48
2023/12/31 08:08:48;;;;;;;;;;;;;;;25.49;37.20;93450.59;4950869;28;7216;-47
2023/12/31 08:11:24;;;;;;;;;;;;;;;25.51;37.11;93452.84;4958444;28;7084;-46
2023/12/31 08:13:52;;;;;;;;;;;;;;;25.52;37.28;93459.81;4973901;28;9424;-46
2023/12/31 08:16:20;;;;;;;;;;;;;;;25.51;37.30;93453.59;4953751;28;7808;-47
2023/12/31 08:18:46;;;;;;;;;;;;;;;25.55;36.95;93450.50;4955274;28;7687;-48
2023/12/31 08:21:13;;;;;;;;;;;;;;;25.53;37.73;93445.53;4972200;28;7534;-45
2023/12/31 08:23:40;;;;;;;;;;;;;;;25.53;37.76;93437.25;4970432;28;9874;-45
2023/12/31 08:26:09;;;;;;;;;;;;;;;25.53;36.75;93429.00;4935719;28;7262;-50
2023/12/31 08:28:36;;;;;;;;;;;;;;;25.54;37.30;93427.72;4968042;28;7265;-46
2023/12/31 08:31:36;;;;;;;;;;;;;;;25.59;36.72;93431.63;4979134;28;8751;-46
2023/12/31 08:34:15;;;;;;;;;;;;;;;25.60;36.95;93436.59;4882154;29;7400;-47
2023/12/31 08:36:43;;;;;;;;;;;;;;;25.58;37.37;93421.91;4895799;29;8856;-48
2023/12/31 08:39:19;;;;;;;;;;;;;;;25.59;36.58;93415.09;4887397;29;7158;-51
2023/12/31 08:42:03;;;;;;;;;;;;;;;25.57;37.26;93423.91;4888452;29;9115;-47
2023/12/31 08:44:38;;;;;;;;;;;;;;;25.60;37.29;93417.31;4882696;29;9094;-47
2023/12/31 08:47:17;;;;;;;;;;;;;;;25.61;37.46;93420.81;4881124;29;7217;-48
2023/12/31 08:49:43;;;;;;;;;;;;;;;25.60;37.29;93416.59;4873080;29;6912;-47
2023/12/31 08:52:27;;;;;;;;;;;;;;;25.61;36.63;93416.06;4895219;29;7366;-48
2023/12/31 08:55:22;;;;;;;;;;;;;;;25.59;36.53;93402.09;4867111;29;9326;-49
2023/12/31 08:58:01;;;;;;;;;;;;;;;25.59;36.73;93401.34;4884344;29;9521;-47
2023/12/31 09:00:29;;;;;;;;;;;;;;;25.59;37.21;93396.56;4884049;29;9624;-42
2023/12/31 09:03:10;;;;;;;;;;;;;;;25.59;37.01;93391.06;4899979;29;7529;-40
2023/12/31 09:05:37;;;;;;;;;;;;;;;25.60;36.89;93387.03;4893496;29;7315;-41
2023/12/31 09:08:07;;;;;;;;;;;;;;;25.63;36.70;93382.47;4899278;29;7335;-41
2023/12/31 09:11:11;;;;;;;;;;;;;;;25.64;36.83;93390.22;4968344;28;9291;-41
2023/12/31 09:13:40;;;;;;;;;;;;;;;25.65;36.94;93383.41;4975753;28;7034;-40
2023/12/31 09:16:15;;;;;;;;;;;;;;;25.63;37.54;93379.72;4952364;28;7295;-42
2023/12/31 09:18:42;;;;;;;;;;;;;;;25.65;37.53;93372.41;4972590;28;7040;-40
2023/12/31 09:21:11;;;;;;;;;;;;;;;25.66;37.17;93368.38;4958330;28;7303;-42
2023/12/31 09:23:40;;;;;;;;;;;;;;;25.66;36.81;93362.88;4961523;28;8943;-41
2023/12/31 09:26:22;;;;;;;;;;;;;;;25.63;36.87;93361.19;4961925;28;8768;-41
2023/12/31 09:28:51;;;;;;;;;;;;;;;25.64;37.09;93357.16;4961605;28;9379;-40
2023/12/31 09:31:25;;;;;;;;;;;;;;;25.62;37.28;93345.94;4961084;28;7478;-41
2023/12/31 09:34:21;;;;;;;;;;;;;;;25.56;37.70;93333.56;4963529;28;7026;-41
2023/12/31 09:37:14;;;;;;;;;;;;;;;25.55;37.50;93334.84;4876593;29;8460;-41
2023/12/31 09:39:51;;;;;;;;;;;;;;;25.54;37.85;93344.38;4897377;29;7289;-41
2023/12/31 09:42:40;;;;;;;;;;;;;;;25.54;38.34;93347.13;4897991;29;7236;-41
2023/12/31 09:45:28;;;;;;;;;;;;;;;25.48;38.47;93347.25;4882505;29;9601;-41
2023/12/31 09:47:59;;;;;;;;;;;;;;;25.53;37.76;93343.66;4895744;29;9054;-40
2023/12/31 09:50:27;;;;;;;;;;;;;;;25.56;37.80;93336.31;4896531;29;9276;-40
2023/12/31 09:53:16;;;;;;;;;;;;;;;25.55;38.43;93330.09;4896687;29;7258;-41
2023/12/31 09:55:56;;;;;;;;;;;;;;;25.55;38.28;93330.09;4896414;29;7691;-41
2023/12/31 09:58:35;;;;;;;;;;;;;;;25.58;38.12;93334.50;4897211;29;9190;-41
2023/12/31 10:01:12;;;;;;;;;;;;;;;25.58;37.94;93323.50;4897740;29;9284;-40
2023/12/31 10:04:03;;;;;;;;;;;;;;;25.62;37.82;93329.41;4891156;29;9549;-41
2023/12/31 10:06:39;;;;;;;;;;;;;;;25.63;37.66;93314.38;4887335;29;7499;-40
2023/12/31 10:09:08;;;;;;;;;;;;;;;25.63;37.64;93308.88;4881023;29;7422;-40
2023/12/31 10:11:38;;;;;;;;;;;;;;;25.66;37.67;93313.31;4894919;29;7161;-41
2023/12/31 10:14:06;;;;;;;;;;;;;;;25.67;38.40;93305.75;4944394;28;7207;-41
2023/12/31 10:16:40;;;;;;;;;;;;;;;25.64;37.86;93301.34;4969712;28;8818;-42
2023/12/31 10:19:07;;;;;;;;;;;;;;;25.65;37.87;93302.81;4971614;28;8741;-56
2023/12/31 10:21:43;;;;;;;;;;;;;;;25.63;38.39;93300.59;4966598;28;9024;-40
2023/12/31 10:24:29;;;;;;;;;;;;;;;25.64;37.55;93307.59;4974026;28;7408;-40
2023/12/31 10:27:08;;;;;;;;;;;;;;;25.67;37.57;93314.78;4962659;28;7054;-39
2023/12/31 10:29:45;;;;;;;;;;;;;;;25.68;38.19;93304.50;4954142;28;7705;-40
2023/12/31 10:32:20;;;;;;;;;;;;;;;25.67;37.39;93300.25;4968597;28;9592;-40
2023/12/31 10:35:25;;;;;;;;;;;;;;;25.67;38.21;93311.28;4954129;28;7983;-40
2023/12/31 10:38:17;;;;;;;;;;;;;;;25.66;37.20;93296.78;4968327;28;8905;-40
2023/12/31 10:40:45;;;;;;;;;;;;;;;25.67;38.44;93309.25;4945043;28;8231;-40
2023/12/31 10:43:48;;;;;;;;;;;;;;;25.66;42.33;93307.81;4957355;28;9536;-40
2023/12/31 10:46:20;;;;;;;;;;;;;;;25.71;44.32;93293.16;4972339;28;7151;-40
2023/12/31 10:49:10;;;;;;;;;;;;;;;25.80;43.29;93286.41;4964042;28;7289;-40
2023/12/31 10:51:55;;;;;;;;;;;;;;;25.81;43.52;93258.34;4957455;28;7362;-40
2023/12/31 10:54:41;;;;;;;;;;;;;;;25.78;42.85;93258.69;4958934;28;9224;-40
2023/12/31 10:57:09;;;;;;;;;;;;;;;25.77;43.86;93246.94;4969154;28;7226;-40
2023/12/31 10:59:41;;;;;;;;;;;;;;;25.79;43.23;93225.09;4955235;28;9222;-40
2023/12/31 11:02:15;;;;;;;;;;;;;;;25.80;40.51;93212.78;4954607;28;7599;-40
2023/12/31 11:04:52;;;;;;;;;;;;;;;25.76;39.53;93212.41;4955331;28;8931;-41
2023/12/31 11:07:20;;;;;;;;;;;;;;;25.75;39.77;93218.47;4970312;28;9429;-40
2023/12/31 11:10:04;;;;;;;;;;;;;;;25.75;39.23;93210.91;4968800;28;7007;-39
2023/12/31 11:12:37;;;;;;;;;;;;;;;25.73;39.19;93196.94;4968587;28;6864;-40
2023/12/31 11:15:15;;;;;;;;;;;;;;;25.72;37.93;93197.50;4966740;28;9451;-40
2023/12/31 11:18:20;;;;;;;;;;;;;;;25.71;37.84;93205.00;4952685;28;9427;-40
2023/12/31 11:21:04;;;;;;;;;;;;;;;25.69;37.83;93191.03;4960811;28;7280;-40
2023/12/31 11:23:46;;;;;;;;;;;;;;;25.70;38.24;93203.56;4944403;28;9574;-41
2023/12/31 11:26:25;;;;;;;;;;;;;;;25.71;37.43;93207.75;4972491;28;9183;-40
2023/12/31 11:28:54;;;;;;;;;;;;;;;25.73;37.95;93210.72;4969746;28;7095;-40
2023/12/31 11:31:24;;;;;;;;;;;;;;;25.73;37.48;93196.94;4965549;28;8229;-37
2023/12/31 11:33:50;;;;;;;;;;;;;;;25.77;38.02;93186.34;4969061;28;7086;-37
2023/12/31 11:36:17;;;;;;;;;;;;;;;25.74;37.37;93195.69;4952522;28;9081;-37
2023/12/31 11:39:00;;;;;;;;;;;;;;;25.74;37.92;93205.94;4954103;28;8724;-37
2023/12/31 11:41:32;;;;;;;;;;;;;;;25.70;37.30;93194.53;4971456;28;8731;-37
2023/12/31 11:43:59;;;;;;;;;;;;;;;25.70;37.31;93209.06;4955408;28;8736;-38
2023/12/31 11:46:40;;;;;;;;;;;;;;;25.74;37.42;93205.94;4952865;28;7083;-37
2023/12/31 11:49:12;;;;;;;;;;;;;;;25.72;37.42;93206.50;4965268;28;9407;-37
2023/12/31 11:52:03;;;;;;;;;;;;;;;25.73;38.20;93221.03;4954239;28;8662;-37
2023/12/31 11:54:40;;;;;;;;;;;;;;;25.73;37.99;93226.53;4961334;28;7417;-37
2023/12/31 11:57:09;;;;;;;;;;;;;;;25.72;38.12;93238.81;4947399;28;7293;-37
2023/12/31 11:59:39;;;;;;;;;;;;;;;25.74;38.75;93236.25;4952939;28;9286;-37
2023/12/31 12:02:06;;;;;;;;;;;;;;;25.75;38.92;93243.25;4953422;28;9476;-37
2023/12/31 12:04:38;;;;;;;;;;;;;;;25.73;38.17;93251.31;4963419;28;7337;-38
2023/12/31 12:07:06;;;;;;;;;;;;;;;25.74;39.05;93258.28;4952305;28;7378;-37
2023/12/31 12:09:51;;;;;;;;;;;;;;;25.75;38.85;93259.78;4968896;28;7586;-37
2023/12/31 12:12:42;;;;;;;;;;;;;;;25.75;38.76;93265.28;4974789;28;8346;-37
2023/12/31 12:15:10;;;;;;;;;;;;;;;25.74;39.27;93256.28;4955143;28;8999;-37
2023/12/31 12:17:52;;;;;;;;;;;;;;;25.77;39.25;93268.97;4978580;28;8608;-37
2023/12/31 12:20:21;;;;;;;;;;;;;;;25.75;38.64;93266.00;4959828;28;7922;-37
2023/12/31 12:22:48;;;;;;;;;;;;;;;25.75;38.54;93271.50;4968316;28;6969;-37
2023/12/31 12:25:44;;;;;;;;;;;;;;;25.76;38.65;93272.25;4958416;28;9306;-37
2023/12/31 12:28:10;;;;;;;;;;;;;;;25.75;39.14;93290.78;4870511;29;8669;-37
2023/12/31 12:30:45;;;;;;;;;;;;;;;25.75;39.10;93290.78;4877382;29;9070;-37
2023/12/31 12:33:26;;;;;;;;;;;;;;;25.72;39.34;93313.91;4873756;29;9184;-37
2023/12/31 12:36:22;;;;;;;;;;;;;;;25.69;38.48;93314.97;4873356;29;7423;-37
2023/12/31 12:39:17;;;;;;;;;;;;;;;25.65;39.55;93316.59;4843157;29;7095;-37
2023/12/31 12:41:56;;;;;;;;;;;;;;;25.68;38.68;93332.03;4846377;29;7348;-53
2023/12/31 12:44:34;;;;;;;;;;;;;;;25.69;38.35;93339.75;4844051;29;7087;-52
2023/12/31 12:47:10;;;;;;;;;;;;;;;25.65;39.06;93350.38;4830697;29;7067;-52
2023/12/31 12:49:47;;;;;;;;;;;;;;;25.65;39.33;93363.41;4831333;29;7252;-50
2023/12/31 12:52:14;;;;;;;;;;;;;;;25.62;38.62;93367.97;4838030;29;8931;-52
2023/12/31 12:54:40;;;;;;;;;;;;;;;25.56;39.13;93366.59;4851089;29;7123;-53
2023/12/31 12:57:33;;;;;;;;;;;;;;;25.56;39.26;93369.34;4831776;29;9572;-51
2023/12/31 13:00:09;;;;;;;;;;;;;;;25.58;39.19;93367.56;4844234;29;7055;-53
2023/12/31 13:02:46;;;;;;;;;;;;;;;25.56;38.25;93381.13;4836679;29;7244;-46
2023/12/31 13:05:32;;;;;;;;;;;;;;;25.59;38.60;93391.06;4889681;29;9494;-53
2023/12/31 13:08:16;;;;;;;;;;;;;;;25.55;37.70;93374.16;4909148;29;9141;-49
2023/12/31 13:10:52;;;;;;;;;;;;;;;25.51;37.97;93379.25;4899530;29;7332;-50
2023/12/31 13:13:29;;;;;;;;;;;;;;;25.49;38.38;93386.56;4914349;29;9090;-54
2023/12/31 13:15:58;;;;;;;;;;;;;;;25.47;38.70;93391.84;4947500;28;7279;-50
2023/12/31 13:18:25;;;;;;;;;;;;;;;25.43;38.69;93401.16;4956101;28;6994;-48
2023/12/31 13:21:04;;;;;;;;;;;;;;;25.50;38.76;93393.53;4975356;28;9177;-52
2023/12/31 13:23:31;;;;;;;;;;;;;;;25.52;38.24;93397.22;4950412;28;7254;-51
2023/12/31 13:25:58;;;;;;;;;;;;;;;25.54;38.04;93394.69;4957031;28;7174;-52
2023/12/31 13:28:33;;;;;;;;;;;;;;;25.55;38.38;93407.19;4945099;28;9214;-48
2023/12/31 13:31:24;;;;;;;;;;;;;;;25.59;38.23;93402.09;4975282;28;7215;-48
2023/12/31 13:33:57;;;;;;;;;;;;;;;25.61;38.43;93409.81;4959810;28;7153;-51
2023/12/31 13:36:36;;;;;;;;;;;;;;;25.61;37.95;93412.56;4954977;28;8742;-51